createdAt,value
2018-11-02T00:01:01.327Z,11.50
2018-11-02T00:03:28.810Z,11.50
2018-11-02T00:05:56.249Z,11.50
2018-11-02T00:08:23.751Z,11.50
2018-11-02T00:10:51.267Z,11.60
2018-11-02T00:13:18.932Z,11.70
2018-11-02T00:15:46.395Z,11.70
2018-11-02T00:18:13.889Z,11.70
2018-11-02T00:20:41.469Z,11.70
2018-11-02T00:23:08.999Z,11.60
2018-11-02T00:25:36.513Z,11.70
2018-11-02T00:28:04.282Z,11.60
2018-11-02T00:30:31.788Z,11.80
2018-11-02T00:33:00.474Z,11.70
2018-11-02T00:35:28.019Z,11.80
2018-11-02T00:37:55.518Z,11.80
2018-11-02T00:40:23.018Z,11.70
2018-11-02T00:42:50.490Z,11.70
2018-11-02T00:45:18.158Z,11.70
2018-11-02T00:47:45.630Z,11.70
2018-11-02T00:50:13.138Z,11.70
2018-11-02T00:52:40.736Z,11.70
2018-11-02T00:55:08.774Z,11.80
2018-11-02T00:57:36.324Z,11.80
2018-11-02T01:00:04.418Z,11.80
2018-11-02T01:02:31.930Z,11.80
2018-11-02T01:04:59.634Z,11.90
2018-11-02T01:07:27.125Z,11.90
2018-11-02T01:09:54.606Z,11.80
2018-11-02T01:12:22.074Z,11.70
2018-11-02T01:14:49.549Z,11.70
2018-11-02T01:17:17.060Z,11.60
2018-11-02T01:19:44.546Z,11.70
2018-11-02T01:22:12.001Z,11.50
2018-11-02T01:24:39.600Z,11.50
2018-11-02T01:27:07.066Z,11.50
2018-11-02T01:29:34.523Z,11.30
2018-11-02T01:32:05.035Z,11.20
2018-11-02T01:34:32.511Z,11.30
2018-11-02T01:37:00.262Z,11.30
2018-11-02T01:39:27.758Z,11.20
2018-11-02T01:41:55.278Z,11.30
2018-11-02T01:44:22.804Z,11.30
2018-11-02T01:46:50.308Z,11.30
2018-11-02T01:49:17.819Z,11.30
2018-11-02T01:51:45.331Z,11.30
2018-11-02T01:54:13.099Z,11.30
2018-11-02T01:56:40.618Z,11.30
2018-11-02T01:59:08.208Z,11.40
2018-11-02T02:01:35.942Z,11.20
2018-11-02T02:04:03.427Z,11.10
2018-11-02T02:06:30.929Z,11.10
2018-11-02T02:08:58.392Z,11.20
2018-11-02T02:11:25.838Z,11.30
2018-11-02T02:13:53.321Z,11.20
2018-11-02T02:16:20.795Z,11.20
2018-11-02T02:18:48.402Z,11.20
2018-11-02T02:21:15.863Z,11.30
2018-11-02T02:23:43.354Z,11.30
2018-11-02T02:26:10.818Z,11.20
2018-11-02T02:28:38.532Z,11.20
2018-11-02T02:31:06.054Z,11.20
2018-11-02T02:33:33.511Z,11.20
2018-11-02T02:36:01.000Z,11.30
2018-11-02T02:38:28.584Z,11.20
2018-11-02T02:40:56.068Z,11.20
2018-11-02T02:43:23.534Z,11.30
2018-11-02T02:45:51.036Z,11.40
2018-11-02T02:48:18.472Z,11.50
2018-11-02T02:50:46.247Z,11.60
2018-11-02T02:53:13.722Z,11.50
2018-11-02T02:55:41.246Z,11.40
2018-11-02T02:58:08.700Z,11.50
2018-11-02T03:00:36.179Z,11.40
2018-11-02T03:03:04.255Z,11.40
2018-11-02T03:05:31.740Z,11.40
2018-11-02T03:07:59.212Z,11.40
2018-11-02T03:10:26.949Z,11.40
2018-11-02T03:12:54.343Z,11.50
2018-11-02T03:15:21.843Z,11.50
2018-11-02T03:17:49.303Z,11.50
2018-11-02T03:20:16.915Z,11.50
2018-11-02T03:22:44.635Z,11.60
2018-11-02T03:25:12.038Z,11.60
2018-11-02T03:27:39.789Z,11.60
2018-11-02T03:30:08.420Z,11.70
2018-11-02T03:32:35.915Z,11.60
2018-11-02T03:35:03.518Z,11.50
2018-11-02T03:37:31.029Z,11.50
2018-11-02T03:39:58.503Z,11.60
2018-11-02T03:42:26.006Z,11.60
2018-11-02T03:44:53.528Z,11.50
2018-11-02T03:47:20.974Z,11.40
2018-11-02T03:49:48.460Z,11.40
2018-11-02T03:52:15.934Z,11.40
2018-11-02T03:54:43.437Z,11.40
2018-11-02T03:57:10.987Z,11.40
2018-11-02T03:59:38.608Z,11.30
2018-11-02T04:02:06.182Z,11.30
2018-11-02T04:04:33.647Z,11.30
2018-11-02T04:07:01.131Z,11.30
2018-11-02T04:09:28.648Z,11.30
2018-11-02T04:11:56.069Z,11.20
2018-11-02T04:14:23.558Z,11.20
2018-11-02T04:16:51.055Z,11.10
2018-11-02T04:19:18.490Z,11.10
2018-11-02T04:21:47.165Z,11.00
2018-11-02T04:24:14.659Z,11.10
2018-11-02T04:26:42.430Z,11.10
2018-11-02T04:29:11.366Z,11.10
2018-11-02T04:31:38.923Z,11.00
2018-11-02T04:34:07.376Z,11.00
2018-11-02T04:36:34.830Z,11.00
2018-11-02T04:39:02.768Z,10.90
2018-11-02T04:41:30.242Z,10.90
2018-11-02T04:43:57.690Z,10.90
2018-11-02T04:46:25.149Z,10.90
2018-11-02T04:48:52.582Z,10.90
2018-11-02T04:51:20.023Z,10.90
2018-11-02T04:53:47.598Z,10.80
2018-11-02T04:56:15.048Z,10.80
2018-11-02T04:58:44.286Z,10.80
2018-11-02T05:01:12.376Z,10.80
2018-11-02T05:03:39.799Z,10.80
2018-11-02T05:06:07.426Z,10.90
2018-11-02T05:08:34.836Z,11.00
2018-11-02T05:11:02.302Z,10.90
2018-11-02T05:13:29.751Z,10.90
2018-11-02T05:15:57.198Z,10.90
2018-11-02T05:18:24.669Z,10.90
2018-11-02T05:20:52.222Z,10.80
2018-11-02T05:23:19.699Z,10.90
2018-11-02T05:25:47.126Z,10.80
2018-11-02T05:28:14.714Z,10.80
2018-11-02T05:30:42.316Z,10.80
2018-11-02T05:33:09.823Z,10.80
2018-11-02T05:35:37.247Z,10.70
2018-11-02T05:38:04.898Z,10.70
2018-11-02T05:40:32.419Z,10.60
2018-11-02T05:42:59.965Z,10.70
2018-11-02T05:45:27.459Z,10.70
2018-11-02T05:47:54.956Z,10.70
2018-11-02T05:50:22.375Z,10.70
2018-11-02T05:52:49.818Z,10.80
2018-11-02T05:55:17.245Z,10.70
2018-11-02T05:57:44.722Z,10.70
2018-11-02T06:00:12.273Z,10.60
2018-11-02T06:02:39.676Z,10.50
2018-11-02T06:05:07.145Z,10.40
2018-11-02T06:07:34.630Z,10.40
2018-11-02T06:10:02.031Z,10.30
2018-11-02T06:12:29.459Z,10.20
2018-11-02T06:14:56.858Z,10.10
2018-11-02T06:17:24.282Z,10.10
2018-11-02T06:19:51.673Z,10.10
2018-11-02T06:22:19.119Z,10.10
2018-11-02T06:24:46.606Z,10.10
2018-11-02T06:27:14.073Z,10.00
2018-11-02T06:29:41.538Z,10.10
2018-11-02T06:32:09.048Z,10.10
2018-11-02T06:34:36.626Z,10.10
2018-11-02T06:37:04.270Z,10.20
2018-11-02T06:39:31.730Z,10.20
2018-11-02T06:41:59.355Z,10.20
2018-11-02T06:44:26.782Z,10.10
2018-11-02T06:46:54.250Z,10.10
2018-11-02T06:49:21.694Z,10.00
2018-11-02T06:51:49.163Z,10.00
2018-11-02T06:54:16.569Z,10.10
2018-11-02T06:56:44.008Z,10.10
2018-11-02T06:59:11.490Z,10.20
2018-11-02T07:01:38.947Z,10.10
2018-11-02T07:04:06.479Z,10.10
2018-11-02T07:06:33.918Z,10.10
2018-11-02T07:09:01.394Z,10.00
2018-11-02T07:11:28.889Z,10.10
2018-11-02T07:13:56.530Z,10.10
2018-11-02T07:16:24.010Z,10.10
2018-11-02T07:18:51.440Z,10.30
2018-11-02T07:21:18.935Z,10.30
2018-11-02T07:23:46.402Z,10.20
2018-11-02T07:26:13.888Z,10.20
2018-11-02T07:28:41.435Z,10.20
2018-11-02T07:31:08.916Z,10.20
2018-11-02T07:33:36.378Z,10.30
2018-11-02T07:36:03.882Z,10.30
2018-11-02T07:38:31.387Z,10.20
2018-11-02T07:40:58.859Z,10.10
2018-11-02T07:43:26.327Z,10.20
2018-11-02T07:45:53.806Z,10.20
2018-11-02T07:48:21.285Z,10.20
2018-11-02T07:50:48.711Z,10.20
2018-11-02T07:53:16.720Z,10.20
2018-11-02T07:55:44.147Z,10.30
2018-11-02T07:58:11.599Z,10.50
2018-11-02T08:00:39.042Z,10.50
2018-11-02T08:03:06.515Z,10.60
2018-11-02T08:05:34.050Z,10.50
2018-11-02T08:08:01.519Z,10.60
2018-11-02T08:10:28.997Z,10.60
2018-11-02T08:12:56.435Z,10.70
2018-11-02T08:15:23.925Z,10.70
2018-11-02T08:17:52.446Z,10.90
2018-11-02T08:20:19.921Z,10.90
2018-11-02T08:22:47.344Z,10.90
2018-11-02T08:25:14.797Z,10.90
2018-11-02T08:27:42.206Z,11.00
2018-11-02T08:30:10.529Z,11.00
2018-11-02T08:32:40.306Z,11.10
2018-11-02T08:35:09.543Z,11.20
2018-11-02T08:37:37.093Z,11.30
2018-11-02T08:40:05.279Z,11.50
2018-11-02T08:42:32.730Z,11.60
2018-11-02T08:45:00.187Z,11.90
2018-11-02T08:47:27.628Z,12.00
2018-11-02T08:49:56.150Z,12.20
2018-11-02T08:52:23.737Z,12.10
2018-11-02T08:54:51.095Z,12.20
2018-11-02T08:57:19.546Z,11.90
2018-11-02T08:59:46.950Z,11.70
2018-11-02T09:02:14.298Z,11.70
2018-11-02T09:04:41.772Z,11.60
2018-11-02T09:07:09.214Z,11.70
2018-11-02T09:09:36.671Z,11.70
2018-11-02T09:12:04.274Z,11.80
2018-11-02T09:14:31.702Z,11.70
2018-11-02T09:16:59.258Z,11.50
2018-11-02T09:19:26.812Z,11.60
2018-11-02T09:21:54.200Z,11.60
2018-11-02T09:24:21.657Z,11.70
2018-11-02T09:26:49.481Z,11.60
2018-11-02T09:29:17.029Z,11.70
2018-11-02T09:31:44.489Z,11.90
2018-11-02T09:34:11.991Z,12.00
2018-11-02T09:36:39.566Z,11.90
2018-11-02T09:39:08.773Z,11.90
2018-11-02T09:41:38.387Z,11.80
2018-11-02T09:44:06.946Z,11.80
2018-11-02T09:46:36.606Z,11.80
2018-11-02T09:49:04.067Z,11.90
2018-11-02T09:51:31.361Z,12.00
2018-11-02T09:53:58.657Z,12.00
2018-11-02T09:56:26.043Z,12.40
2018-11-02T09:58:54.151Z,12.80
2018-11-02T10:01:22.180Z,13.00
2018-11-02T10:03:49.640Z,13.30
2018-11-02T10:06:17.130Z,13.40
2018-11-02T10:08:44.644Z,13.40
2018-11-02T10:11:12.163Z,13.20
2018-11-02T10:13:39.672Z,13.00
2018-11-02T10:16:07.591Z,12.90
2018-11-02T10:18:35.110Z,12.90
2018-11-02T10:21:02.758Z,12.90
2018-11-02T10:23:30.463Z,12.70
2018-11-02T10:25:57.985Z,12.60
2018-11-02T10:28:25.982Z,12.60
2018-11-02T10:30:53.684Z,12.50
2018-11-02T10:33:21.477Z,12.30
2018-11-02T10:35:49.139Z,12.40
2018-11-02T10:38:16.743Z,12.40
2018-11-02T10:40:50.754Z,12.30
2018-11-02T10:43:19.031Z,12.40
2018-11-02T10:45:47.345Z,12.60
2018-11-02T10:48:15.394Z,12.50
2018-11-02T10:50:42.936Z,12.30
2018-11-02T10:53:10.550Z,12.40
2018-11-02T10:55:38.063Z,12.30
2018-11-02T10:58:05.906Z,12.40
2018-11-02T11:00:39.168Z,12.40
2018-11-02T11:03:06.887Z,12.60
2018-11-02T11:05:35.166Z,12.50
2018-11-02T11:08:02.523Z,12.60
2018-11-02T11:10:30.021Z,13.00
2018-11-02T11:12:57.669Z,13.40
2018-11-02T11:15:25.746Z,13.80
2018-11-02T11:17:53.307Z,14.20
2018-11-02T11:20:20.831Z,14.40
2018-11-02T11:22:48.373Z,14.40
2018-11-02T11:25:15.987Z,14.30
2018-11-02T11:27:43.582Z,14.00
2018-11-02T11:30:13.579Z,13.60
2018-11-02T11:32:41.069Z,13.20
2018-11-02T11:35:10.413Z,13.20
2018-11-02T11:37:38.496Z,13.10
2018-11-02T11:40:08.330Z,13.00
2018-11-02T11:42:36.529Z,12.80
2018-11-02T11:45:05.339Z,12.70
2018-11-02T11:47:32.802Z,12.60
2018-11-02T11:50:00.277Z,12.60
2018-11-02T11:52:27.771Z,12.70
2018-11-02T11:54:55.275Z,12.60
2018-11-02T11:57:22.846Z,12.80
2018-11-02T12:02:22.970Z,12.70
2018-11-02T12:04:50.381Z,12.70
2018-11-02T12:07:17.839Z,12.80
2018-11-02T12:09:45.317Z,13.00
2018-11-02T12:12:12.795Z,13.30
2018-11-02T12:14:42.523Z,13.40
2018-11-02T12:17:09.951Z,13.60
2018-11-02T12:19:37.639Z,13.70
2018-11-02T12:22:05.107Z,13.70
2018-11-02T12:24:32.567Z,13.70
2018-11-02T12:27:00.024Z,13.70
2018-11-02T12:29:28.607Z,13.70
2018-11-02T12:31:56.067Z,13.70
2018-11-02T12:34:23.501Z,13.60
2018-11-02T12:36:50.968Z,13.50
2018-11-02T12:39:18.499Z,13.30
2018-11-02T12:41:45.955Z,13.30
2018-11-02T12:44:13.890Z,13.20
2018-11-02T12:46:41.335Z,13.10
2018-11-02T12:49:09.135Z,13.00
2018-11-02T12:51:36.215Z,13.00
2018-11-02T12:54:03.859Z,12.90
2018-11-02T12:56:31.365Z,12.80
2018-11-02T12:59:05.736Z,13.10
2018-11-02T13:01:33.194Z,13.10
2018-11-02T13:04:00.717Z,13.00
2018-11-02T13:06:28.207Z,13.00
2018-11-02T13:08:55.740Z,13.10
2018-11-02T13:11:23.251Z,13.10
2018-11-02T13:13:51.273Z,13.20
2018-11-02T13:16:18.962Z,13.20
2018-11-02T13:18:46.501Z,13.10
2018-11-02T13:21:13.925Z,13.20
2018-11-02T13:23:41.418Z,13.40
2018-11-02T13:26:09.032Z,13.60
2018-11-02T13:28:36.435Z,13.60
2018-11-02T13:31:06.468Z,13.50
2018-11-02T13:33:33.938Z,13.40
2018-11-02T13:36:01.441Z,13.20
2018-11-02T13:38:28.936Z,13.10
2018-11-02T13:40:56.490Z,13.00
2018-11-02T13:43:24.043Z,13.00
2018-11-02T13:45:51.470Z,12.90
2018-11-02T13:48:19.779Z,12.90
2018-11-02T13:50:47.250Z,12.90
2018-11-02T13:53:14.760Z,13.00
2018-11-02T13:55:42.290Z,13.30
2018-11-02T13:58:09.797Z,13.60
2018-11-02T14:00:37.274Z,13.80
2018-11-02T14:03:06.235Z,13.70
2018-11-02T14:05:33.696Z,13.90
2018-11-02T14:08:01.949Z,13.80
2018-11-02T14:10:29.425Z,13.70
2018-11-02T14:12:56.954Z,13.70
2018-11-02T14:15:24.409Z,13.60
2018-11-02T14:17:51.921Z,13.30
2018-11-02T14:20:19.478Z,13.10
2018-11-02T14:22:46.943Z,12.90
2018-11-02T14:25:15.706Z,12.80
2018-11-02T14:27:43.469Z,12.70
2018-11-02T14:30:12.455Z,12.60
2018-11-02T14:32:39.950Z,12.70
2018-11-02T14:35:08.556Z,12.70
2018-11-02T14:37:36.475Z,12.70
2018-11-02T14:40:04.608Z,12.70
2018-11-02T14:42:32.126Z,12.60
2018-11-02T14:45:02.702Z,12.70
2018-11-02T14:47:30.234Z,12.80
2018-11-02T14:49:57.767Z,12.90
2018-11-02T14:52:25.308Z,13.00
2018-11-02T14:54:52.775Z,13.10
2018-11-02T14:57:20.502Z,13.00
2018-11-02T14:59:51.957Z,13.20
2018-11-02T15:02:19.222Z,13.10
2018-11-02T15:04:46.500Z,12.90
2018-11-02T15:07:13.824Z,12.80
2018-11-02T15:09:41.335Z,12.90
2018-11-02T15:12:08.870Z,12.80
2018-11-02T15:14:36.384Z,12.80
2018-11-02T15:17:05.510Z,12.50
2018-11-02T15:19:32.790Z,12.50
2018-11-02T15:22:00.110Z,12.60
2018-11-02T15:24:27.361Z,12.60
2018-11-02T15:26:54.675Z,12.60
2018-11-02T15:29:21.949Z,12.60
2018-11-02T15:31:53.974Z,12.70
2018-11-02T15:34:21.243Z,12.50
2018-11-02T15:36:48.523Z,12.40
2018-11-02T15:39:15.812Z,12.30
2018-11-02T15:41:43.105Z,12.40
2018-11-02T15:44:10.427Z,12.30
2018-11-02T15:46:41.477Z,12.30
2018-11-02T15:49:08.826Z,12.20
2018-11-02T15:51:36.044Z,12.20
2018-11-02T15:54:03.356Z,12.00
2018-11-02T15:56:30.651Z,11.90
2018-11-02T15:58:59.022Z,11.80
2018-11-02T16:01:30.549Z,11.80
2018-11-02T16:03:57.914Z,11.80
2018-11-02T16:06:25.264Z,11.70
2018-11-02T16:08:52.564Z,11.60
2018-11-02T16:11:22.007Z,11.60
2018-11-02T16:13:50.155Z,11.50
2018-11-02T16:16:17.457Z,11.30
2018-11-02T16:18:44.738Z,11.30
2018-11-02T16:21:11.996Z,11.10
2018-11-02T16:23:39.303Z,11.10
2018-11-02T16:26:06.776Z,11.00
2018-11-02T16:28:34.036Z,10.90
2018-11-02T16:31:02.345Z,10.80
2018-11-02T16:33:29.683Z,10.70
2018-11-02T16:35:57.157Z,10.60
2018-11-02T16:38:24.630Z,10.50
2018-11-02T16:40:52.670Z,10.40
2018-11-02T16:43:20.308Z,10.30
2018-11-02T16:45:47.864Z,10.20
2018-11-02T16:48:15.344Z,10.00
2018-11-02T16:50:42.768Z,9.90
2018-11-02T16:53:10.237Z,9.90
2018-11-02T16:55:37.739Z,9.80
2018-11-02T16:58:05.430Z,9.70
2018-11-02T17:00:32.959Z,9.70
2018-11-02T17:03:00.471Z,9.60
2018-11-02T17:05:27.990Z,9.60
2018-11-02T17:07:55.493Z,9.50
2018-11-02T17:10:25.127Z,9.50
2018-11-02T17:12:52.661Z,9.40
2018-11-02T17:15:20.106Z,9.40
2018-11-02T17:17:47.558Z,9.30
2018-11-02T17:20:16.346Z,9.20
2018-11-02T17:22:43.942Z,9.10
2018-11-02T17:25:11.984Z,9.10
2018-11-02T17:27:39.737Z,9.10
2018-11-02T17:30:09.505Z,8.90
2018-11-02T17:32:37.659Z,8.90
2018-11-02T17:35:05.260Z,8.80
2018-11-02T17:37:32.734Z,8.80
2018-11-02T17:40:00.214Z,8.80
2018-11-02T17:42:27.839Z,8.70
2018-11-02T17:44:56.246Z,8.70
2018-11-02T17:47:23.589Z,8.60
2018-11-02T17:49:51.528Z,8.60
2018-11-02T17:52:18.823Z,8.60
2018-11-02T17:54:46.152Z,8.60
2018-11-02T17:57:13.627Z,8.50
2018-11-02T17:59:41.086Z,8.50
2018-11-02T18:02:08.659Z,8.50
2018-11-02T18:04:36.323Z,8.50
2018-11-02T18:07:04.078Z,8.40
2018-11-02T18:09:32.600Z,8.30
2018-11-02T18:12:00.079Z,8.30
2018-11-02T18:14:27.657Z,8.20
2018-11-02T18:16:54.991Z,8.20
2018-11-02T18:19:22.514Z,8.10
2018-11-02T18:21:50.071Z,8.10
2018-11-02T18:24:17.579Z,8.10
2018-11-02T18:26:45.032Z,8.00
2018-11-02T18:29:12.526Z,8.00
2018-11-02T18:31:40.118Z,7.90
2018-11-02T18:34:07.601Z,7.90
2018-11-02T18:36:35.179Z,7.90
2018-11-02T18:39:03.962Z,7.90
2018-11-02T18:41:31.246Z,7.60
2018-11-02T18:43:58.531Z,7.60
2018-11-02T18:46:25.842Z,7.70
2018-11-02T18:48:53.067Z,7.60
2018-11-02T18:51:20.366Z,7.60
2018-11-02T18:53:47.834Z,7.60
2018-11-02T18:56:15.366Z,7.60
2018-11-02T18:58:42.916Z,7.50
2018-11-02T19:01:10.426Z,7.60
2018-11-02T19:03:37.911Z,7.50
2018-11-02T19:06:09.667Z,7.40
2018-11-02T19:08:36.913Z,7.40
2018-11-02T19:11:04.280Z,7.50
2018-11-02T19:13:31.708Z,7.40
2018-11-02T19:15:58.875Z,7.40
2018-11-02T19:18:26.143Z,7.50
2018-11-02T19:20:53.441Z,7.40
2018-11-02T19:23:20.740Z,7.40
2018-11-02T19:25:50.417Z,7.40
2018-11-02T19:28:18.046Z,7.40
2018-11-02T19:30:45.330Z,7.40
2018-11-02T19:33:12.618Z,7.40
2018-11-02T19:35:39.912Z,7.40
2018-11-02T19:38:07.354Z,7.30
2018-11-02T19:40:34.447Z,7.30
2018-11-02T19:43:01.729Z,7.30
2018-11-02T19:45:29.017Z,7.30
2018-11-02T19:48:02.523Z,7.30
2018-11-02T19:50:30.184Z,7.30
2018-11-02T19:53:04.099Z,7.30
2018-11-02T19:55:32.164Z,7.30
2018-11-02T19:57:59.354Z,7.30
2018-11-02T20:00:26.662Z,7.30
2018-11-02T20:02:53.966Z,7.20
2018-11-02T20:05:21.276Z,7.20
2018-11-02T20:07:52.567Z,7.20
2018-11-02T20:10:19.930Z,7.20
2018-11-02T20:12:47.790Z,7.10
2018-11-02T20:15:15.541Z,7.10
2018-11-02T20:17:42.961Z,7.00
2018-11-02T20:20:11.723Z,7.00
2018-11-02T20:22:39.034Z,7.00
2018-11-02T20:25:08.553Z,7.00
2018-11-02T20:27:35.937Z,6.90
2018-11-02T20:30:03.961Z,6.90
2018-11-02T20:32:31.382Z,6.90
2018-11-02T20:34:58.803Z,6.90
2018-11-02T20:37:26.433Z,6.80
2018-11-02T20:39:53.944Z,6.80
2018-11-02T20:42:21.218Z,6.70
2018-11-02T20:44:49.192Z,6.80
2018-11-02T20:47:16.477Z,6.70
2018-11-02T20:49:44.067Z,6.70
2018-11-02T20:52:11.402Z,6.70
2018-11-02T20:54:38.721Z,6.70
2018-11-02T20:57:06.714Z,6.70
2018-11-02T20:59:33.986Z,6.70
2018-11-02T21:02:01.364Z,6.70
2018-11-02T21:04:28.868Z,6.70
2018-11-02T21:06:56.182Z,6.60
2018-11-02T21:09:23.805Z,6.60
2018-11-02T21:11:50.732Z,6.60
2018-11-02T21:14:18.057Z,6.60
2018-11-02T21:16:45.277Z,6.50
2018-11-02T21:19:13.568Z,6.50
2018-11-02T21:21:40.927Z,6.40
2018-11-02T21:24:08.195Z,6.40
2018-11-02T21:26:35.850Z,6.40
2018-11-02T21:29:03.608Z,6.40
2018-11-02T21:31:30.825Z,6.30
2018-11-02T21:33:58.888Z,6.30
2018-11-02T21:36:26.081Z,6.30
2018-11-02T21:38:53.486Z,6.30
2018-11-02T21:41:20.688Z,6.30
2018-11-02T21:43:48.394Z,6.30
2018-11-02T21:46:15.698Z,6.30
2018-11-02T21:48:43.204Z,6.30
2018-11-02T21:51:10.503Z,6.30
2018-11-02T21:53:38.981Z,6.20
2018-11-02T21:56:06.208Z,6.30
2018-11-02T21:58:33.560Z,6.30
2018-11-02T22:01:00.726Z,6.40
2018-11-02T22:03:28.022Z,6.30
2018-11-02T22:05:55.453Z,6.30
2018-11-02T22:08:22.645Z,6.30
2018-11-02T22:11:03.506Z,6.40
2018-11-02T22:13:31.829Z,6.30
2018-11-02T22:16:00.784Z,6.30
2018-11-02T22:18:29.214Z,6.20
2018-11-02T22:21:02.825Z,6.20
2018-11-02T22:23:30.612Z,6.20
2018-11-02T22:25:59.337Z,6.20
2018-11-02T22:28:27.320Z,6.10
2018-11-02T22:30:56.078Z,6.20
2018-11-02T22:33:23.811Z,6.10
2018-11-02T22:35:52.721Z,6.20
2018-11-02T22:38:20.990Z,6.10
2018-11-02T22:40:49.792Z,6.20
2018-11-02T22:43:17.849Z,6.10
2018-11-02T22:45:45.756Z,6.10
2018-11-02T22:48:19.405Z,6.00
2018-11-02T22:50:47.480Z,6.00
2018-11-02T22:53:15.402Z,6.00
2018-11-02T22:55:50.275Z,6.00
2018-11-02T22:58:18.017Z,6.00
2018-11-02T23:00:51.780Z,5.90
2018-11-02T23:03:19.401Z,5.90
2018-11-02T23:05:46.920Z,5.90
2018-11-02T23:08:14.342Z,5.80
2018-11-02T23:10:42.128Z,5.90
2018-11-02T23:13:15.083Z,5.90
2018-11-02T23:15:42.732Z,5.90
2018-11-02T23:18:10.204Z,5.90
2018-11-02T23:20:37.835Z,5.90
2018-11-02T23:23:05.334Z,5.90
2018-11-02T23:25:33.120Z,5.80
2018-11-02T23:28:00.596Z,5.60
2018-11-02T23:30:29.988Z,5.60
2018-11-02T23:32:57.743Z,5.70
2018-11-02T23:35:25.263Z,5.70
2018-11-02T23:37:52.710Z,5.60
2018-11-02T23:40:20.323Z,5.50
2018-11-02T23:42:48.599Z,5.50
2018-11-02T23:45:17.311Z,5.50
2018-11-02T23:48:21.730Z,5.50
2018-11-02T23:50:52.465Z,5.40
2018-11-02T23:53:20.096Z,5.40
2018-11-02T23:55:47.395Z,5.40
2018-11-02T23:58:15.122Z,5.40
